createdAt,value
2023-01-23T00:00:08.141Z,38.00
2023-01-23T00:02:10.957Z,37.42
2023-01-23T00:04:15.068Z,35.40
2023-01-23T00:06:19.152Z,33.03
2023-01-23T00:08:21.965Z,32.97
2023-01-23T00:10:24.983Z,33.28
2023-01-23T00:12:27.738Z,34.53
2023-01-23T00:14:30.425Z,30.00
2023-01-23T00:16:34.944Z,26.35
2023-01-23T00:18:37.647Z,25.35
2023-01-23T00:20:41.417Z,24.88
2023-01-23T00:22:44.070Z,22.20
2023-01-23T00:24:46.789Z,24.73
2023-01-23T00:26:49.433Z,26.27
2023-01-23T00:28:53.150Z,22.73
2023-01-23T00:31:02.804Z,22.33
2023-01-23T00:33:06.922Z,25.20
2023-01-23T00:35:09.770Z,24.35
2023-01-23T00:37:12.482Z,25.95
2023-01-23T00:39:18.423Z,26.20
2023-01-23T00:41:21.120Z,27.77
2023-01-23T00:43:24.501Z,27.60
2023-01-23T00:45:27.106Z,26.42
2023-01-23T00:47:30.313Z,28.52
2023-01-23T00:49:34.375Z,25.77
2023-01-23T00:51:37.236Z,27.02
2023-01-23T00:53:39.911Z,26.83
2023-01-23T00:55:43.431Z,27.20
2023-01-23T00:57:46.043Z,29.20
2023-01-23T00:59:48.731Z,27.38
2023-01-23T01:01:51.777Z,35.00
2023-01-23T01:03:54.983Z,27.73
2023-01-23T01:05:59.359Z,27.75
2023-01-23T01:08:02.261Z,28.48
2023-01-23T01:10:05.572Z,30.30
2023-01-23T01:12:08.607Z,31.42
2023-01-23T01:14:11.391Z,27.65
2023-01-23T01:16:14.468Z,29.83
2023-01-23T01:18:17.513Z,29.48
2023-01-23T01:20:20.615Z,28.42
2023-01-23T01:22:24.778Z,27.35
2023-01-23T01:24:27.628Z,25.50
2023-01-23T01:26:30.328Z,22.25
2023-01-23T01:28:34.380Z,27.75
2023-01-23T01:30:37.748Z,26.77
2023-01-23T01:32:41.169Z,23.55
2023-01-23T01:34:43.908Z,26.02
2023-01-23T01:36:46.717Z,27.45
2023-01-23T01:38:51.374Z,23.15
2023-01-23T01:40:54.342Z,26.77
2023-01-23T01:43:00.661Z,28.55
2023-01-23T01:45:03.741Z,22.67
2023-01-23T01:47:06.995Z,30.88
2023-01-23T01:49:12.634Z,26.73
2023-01-23T01:51:20.707Z,23.58
2023-01-23T01:53:26.965Z,22.83
2023-01-23T01:55:31.385Z,25.67
2023-01-23T01:57:37.357Z,24.42
2023-01-23T01:59:45.422Z,25.33
2023-01-23T02:01:49.893Z,26.58
2023-01-23T02:03:54.163Z,25.05
2023-01-23T02:05:57.080Z,27.17
2023-01-23T02:08:05.565Z,27.60
2023-01-23T02:10:09.899Z,26.58
2023-01-23T02:12:13.962Z,20.48
2023-01-23T02:14:16.912Z,24.88
2023-01-23T02:16:23.038Z,23.23
2023-01-23T02:18:26.907Z,23.17
2023-01-23T02:20:29.803Z,24.17
2023-01-23T02:22:43.381Z,26.48
2023-01-23T02:24:55.041Z,23.55
2023-01-23T02:26:59.013Z,26.65
2023-01-23T02:29:01.896Z,24.65
2023-01-23T02:31:04.923Z,26.38
2023-01-23T02:33:10.171Z,27.90
2023-01-23T02:35:24.321Z,23.60
2023-01-23T02:37:33.731Z,27.20
2023-01-23T02:39:37.128Z,26.25
2023-01-23T02:41:43.013Z,25.20
2023-01-23T02:43:48.797Z,22.10
2023-01-23T02:45:52.244Z,24.42
2023-01-23T02:47:55.344Z,26.83
2023-01-23T02:49:58.023Z,23.23
2023-01-23T02:52:01.364Z,26.73
2023-01-23T02:54:04.136Z,23.42
2023-01-23T02:56:07.433Z,28.65
2023-01-23T02:58:27.533Z,29.30
2023-01-23T03:00:31.628Z,26.48
2023-01-23T03:02:34.311Z,26.02
2023-01-23T03:04:37.042Z,24.23
2023-01-23T03:06:39.776Z,25.92
2023-01-23T03:08:47.460Z,28.25
2023-01-23T03:10:50.383Z,24.17
2023-01-23T03:12:53.252Z,26.83
2023-01-23T03:14:56.379Z,24.38
2023-01-23T03:17:00.715Z,25.60
2023-01-23T03:19:05.461Z,32.58
2023-01-23T03:21:08.640Z,26.60
2023-01-23T03:23:12.555Z,24.80
2023-01-23T03:25:15.341Z,29.30
2023-01-23T03:27:18.145Z,27.05
2023-01-23T03:29:41.345Z,26.35
2023-01-23T03:31:44.306Z,25.67
2023-01-23T03:33:48.819Z,28.63
2023-01-23T03:35:51.611Z,29.13
2023-01-23T03:37:54.449Z,30.70
2023-01-23T03:40:14.792Z,29.60
2023-01-23T03:42:16.647Z,27.02
2023-01-23T03:44:20.252Z,26.50
2023-01-23T03:46:22.925Z,26.35
2023-01-23T03:48:25.672Z,25.35
2023-01-23T03:50:29.790Z,28.40
2023-01-23T03:52:32.628Z,29.85
2023-01-23T03:54:35.565Z,25.50
2023-01-23T03:56:38.381Z,27.48
2023-01-23T03:58:41.098Z,26.17
2023-01-23T04:00:43.934Z,29.20
2023-01-23T04:02:46.628Z,25.65
2023-01-23T04:04:49.443Z,28.10
2023-01-23T04:06:53.625Z,28.30
2023-01-23T04:08:57.174Z,32.35
2023-01-23T04:11:04.546Z,32.60
2023-01-23T04:13:07.257Z,28.90
2023-01-23T04:15:11.497Z,28.55
2023-01-23T04:17:14.453Z,30.70
2023-01-23T04:19:19.826Z,25.67
2023-01-23T04:21:22.914Z,24.15
2023-01-23T04:23:27.759Z,24.42
2023-01-23T04:25:30.611Z,28.55
2023-01-23T04:27:33.996Z,28.35
2023-01-23T04:29:36.745Z,32.58
2023-01-23T04:31:39.786Z,29.27
2023-01-23T04:33:42.572Z,28.05
2023-01-23T04:35:51.702Z,28.42
2023-01-23T04:37:54.359Z,24.88
2023-01-23T04:39:58.378Z,28.63
2023-01-23T04:42:01.112Z,28.55
2023-01-23T04:44:20.050Z,29.77
2023-01-23T04:46:23.384Z,26.27
2023-01-23T04:48:26.709Z,32.20
2023-01-23T04:50:29.399Z,27.95
2023-01-23T04:52:32.271Z,29.30
2023-01-23T04:54:34.854Z,30.75
2023-01-23T04:56:38.895Z,29.52
2023-01-23T04:58:41.802Z,29.52
2023-01-23T05:00:45.823Z,29.33
2023-01-23T05:02:48.579Z,30.60
2023-01-23T05:04:51.219Z,24.38
2023-01-23T05:06:53.812Z,25.27
2023-01-23T05:08:56.876Z,25.35
2023-01-23T05:10:59.562Z,28.27
2023-01-23T05:13:04.476Z,28.73
2023-01-23T05:15:08.086Z,26.55
2023-01-23T05:17:10.729Z,26.60
2023-01-23T05:19:13.431Z,28.20
2023-01-23T05:21:16.152Z,23.40
2023-01-23T05:23:18.984Z,28.20
2023-01-23T05:25:23.499Z,25.98
2023-01-23T05:27:26.213Z,27.98
2023-01-23T05:29:30.433Z,28.33
2023-01-23T05:31:33.400Z,30.50
2023-01-23T05:33:36.261Z,30.33
2023-01-23T05:35:40.245Z,26.73
2023-01-23T05:37:42.917Z,28.15
2023-01-23T05:39:45.649Z,27.67
2023-01-23T05:41:48.398Z,23.45
2023-01-23T05:43:51.062Z,25.52
2023-01-23T05:45:55.045Z,27.10
2023-01-23T05:47:57.821Z,28.20
2023-01-23T05:50:01.121Z,25.60
2023-01-23T05:52:04.055Z,28.23
2023-01-23T05:54:06.890Z,27.08
2023-01-23T05:56:10.252Z,30.40
2023-01-23T05:58:15.091Z,23.52
2023-01-23T06:00:20.020Z,31.20
2023-01-23T06:02:24.303Z,29.65
2023-01-23T06:04:27.570Z,24.17
2023-01-23T06:06:30.238Z,31.17
2023-01-23T06:08:32.915Z,29.33
2023-01-23T06:10:38.152Z,26.33
2023-01-23T06:12:40.828Z,30.80
2023-01-23T06:14:43.447Z,28.25
2023-01-23T06:16:46.237Z,31.10
2023-01-23T06:18:50.220Z,27.35
2023-01-23T06:20:58.624Z,31.33
2023-01-23T06:23:01.436Z,29.20
2023-01-23T06:25:04.721Z,31.90
2023-01-23T06:27:08.323Z,34.90
2023-01-23T06:29:10.982Z,28.88
2023-01-23T06:31:13.853Z,30.38
2023-01-23T06:33:16.528Z,35.15
2023-01-23T06:35:20.885Z,30.50
2023-01-23T06:37:23.818Z,26.67
2023-01-23T06:39:27.046Z,28.35
2023-01-23T06:41:29.785Z,32.67
2023-01-23T06:43:32.476Z,26.08
2023-01-23T06:45:35.118Z,27.85
2023-01-23T06:47:38.153Z,28.75
2023-01-23T06:49:40.852Z,28.55
2023-01-23T06:51:44.901Z,29.35
2023-01-23T06:53:47.477Z,29.95
2023-01-23T06:55:50.296Z,26.02
2023-01-23T06:57:53.068Z,29.98
2023-01-23T06:59:55.841Z,28.90
2023-01-23T07:01:58.573Z,27.08
2023-01-23T07:04:01.323Z,28.45
2023-01-23T07:06:06.924Z,28.17
2023-01-23T07:08:11.378Z,25.45
2023-01-23T07:10:14.392Z,27.25
2023-01-23T07:12:17.144Z,27.33
2023-01-23T07:14:19.832Z,28.30
2023-01-23T07:16:22.857Z,25.85
2023-01-23T07:18:28.200Z,26.38
2023-01-23T07:20:31.083Z,28.10
2023-01-23T07:22:33.761Z,27.65
2023-01-23T07:24:37.711Z,31.15
2023-01-23T07:26:40.353Z,25.75
2023-01-23T07:28:43.721Z,23.88
2023-01-23T07:30:48.010Z,26.35
2023-01-23T07:32:51.032Z,27.60
2023-01-23T07:34:53.734Z,26.10
2023-01-23T07:36:56.473Z,27.95
2023-01-23T07:38:59.341Z,29.42
2023-01-23T07:41:03.353Z,31.17
2023-01-23T07:43:06.387Z,29.20
2023-01-23T07:45:10.421Z,27.45
2023-01-23T07:47:13.289Z,25.92
2023-01-23T07:49:16.518Z,27.40
2023-01-23T07:51:19.269Z,25.67
2023-01-23T07:53:22.251Z,27.77
2023-01-23T07:55:24.916Z,27.45
2023-01-23T07:57:29.017Z,25.40
2023-01-23T07:59:32.062Z,27.95
2023-01-23T08:01:34.786Z,23.25
2023-01-23T08:03:37.585Z,26.98
2023-01-23T08:05:41.780Z,25.48
2023-01-23T08:07:46.166Z,26.85
2023-01-23T08:09:48.972Z,26.33
2023-01-23T08:11:52.585Z,23.60
2023-01-23T08:13:56.558Z,24.88
2023-01-23T08:15:59.541Z,25.55
2023-01-23T08:18:02.178Z,23.48
2023-01-23T08:20:05.634Z,28.88
2023-01-23T08:22:08.446Z,27.15
2023-01-23T08:24:11.912Z,30.75
2023-01-23T08:26:16.174Z,27.25
2023-01-23T08:28:18.871Z,28.67
2023-01-23T08:30:23.118Z,27.02
2023-01-23T08:32:25.878Z,30.10
2023-01-23T08:34:28.705Z,27.33
2023-01-23T08:36:31.464Z,27.95
2023-01-23T08:38:37.228Z,30.60
2023-01-23T08:40:39.908Z,25.38
2023-01-23T08:42:42.545Z,24.42
2023-01-23T08:44:45.253Z,27.38
2023-01-23T08:46:49.287Z,24.35
2023-01-23T08:48:51.893Z,25.50
2023-01-23T08:51:00.539Z,26.20
2023-01-23T08:53:03.340Z,27.60
2023-01-23T08:55:07.041Z,24.70
2023-01-23T08:57:09.795Z,27.17
2023-01-23T08:59:12.607Z,22.38
2023-01-23T09:01:16.539Z,27.48
2023-01-23T09:03:20.556Z,24.80
2023-01-23T09:05:23.194Z,27.98
2023-01-23T09:07:25.924Z,21.15
2023-01-23T09:09:30.111Z,21.60
2023-01-23T09:11:32.869Z,21.40
2023-01-23T09:13:35.704Z,18.02
2023-01-23T09:15:39.148Z,18.85
2023-01-23T09:17:41.834Z,17.77
2023-01-23T09:19:45.801Z,15.93
2023-01-23T09:21:48.544Z,17.75
2023-01-23T09:23:51.274Z,16.83
2023-01-23T09:25:53.845Z,18.67
2023-01-23T09:27:56.419Z,18.77
2023-01-23T09:29:59.138Z,18.23
2023-01-23T09:32:02.067Z,18.98
2023-01-23T09:34:04.814Z,17.60
2023-01-23T09:36:10.678Z,16.55
2023-01-23T09:38:13.262Z,18.90
2023-01-23T09:40:19.537Z,18.42
2023-01-23T09:42:26.780Z,14.63
2023-01-23T09:44:36.669Z,17.95
2023-01-23T09:46:44.105Z,15.68
2023-01-23T09:48:48.319Z,16.38
2023-01-23T09:50:57.377Z,16.45
2023-01-23T09:53:09.237Z,17.45
2023-01-23T09:55:16.632Z,14.73
2023-01-23T09:57:22.991Z,16.67
2023-01-23T09:59:34.517Z,14.98
2023-01-23T10:01:38.128Z,15.63
2023-01-23T10:03:41.556Z,16.92
2023-01-23T10:05:53.485Z,14.35
2023-01-23T10:08:11.312Z,14.48
2023-01-23T10:10:41.716Z,14.13
2023-01-23T10:12:54.805Z,18.98
2023-01-23T10:15:20.554Z,13.05
2023-01-23T10:17:30.945Z,13.93
2023-01-23T10:20:12.917Z,14.05
2023-01-23T10:22:31.361Z,15.43
2023-01-23T10:24:45.703Z,14.02
2023-01-23T10:26:50.082Z,13.13
2023-01-23T10:28:59.005Z,15.90
2023-01-23T10:31:04.947Z,15.50
2023-01-23T10:33:14.547Z,14.00
2023-01-23T10:35:21.265Z,14.82
2023-01-23T10:37:38.190Z,12.80
2023-01-23T10:39:50.760Z,14.48
2023-01-23T10:42:01.431Z,16.83
2023-01-23T10:44:14.935Z,17.33
2023-01-23T10:46:20.882Z,15.68
2023-01-23T10:48:45.824Z,18.15
2023-01-23T10:50:48.464Z,16.52
2023-01-23T10:52:51.182Z,15.13
2023-01-23T10:54:55.285Z,16.33
2023-01-23T10:56:59.664Z,15.93
2023-01-23T10:59:04.509Z,22.70
2023-01-23T11:01:24.692Z,17.10
2023-01-23T11:03:30.619Z,17.08
2023-01-23T11:05:50.649Z,17.20
2023-01-23T11:07:56.123Z,17.02
2023-01-23T11:10:04.321Z,14.98
2023-01-23T11:12:15.419Z,18.58
2023-01-23T11:14:24.204Z,17.23
2023-01-23T11:16:26.912Z,17.63
2023-01-23T11:18:33.681Z,16.40
2023-01-23T11:20:38.979Z,15.25
2023-01-23T11:22:42.846Z,17.85
2023-01-23T11:24:45.519Z,18.17
2023-01-23T11:26:59.978Z,17.88
2023-01-23T11:29:03.200Z,17.30
2023-01-23T11:31:15.238Z,15.18
2023-01-23T11:33:34.775Z,16.05
2023-01-23T11:35:51.949Z,15.93
2023-01-23T11:37:57.819Z,15.18
2023-01-23T11:40:04.452Z,19.27
2023-01-23T11:42:11.146Z,21.10
2023-01-23T11:44:18.711Z,14.10
2023-01-23T11:46:38.719Z,17.80
2023-01-23T11:48:56.103Z,19.58
2023-01-23T11:51:06.906Z,20.48
2023-01-23T11:53:28.021Z,21.75
2023-01-23T11:55:58.664Z,18.88
2023-01-23T11:58:14.316Z,19.40
2023-01-23T12:00:29.855Z,19.27
2023-01-23T12:02:49.603Z,20.65
2023-01-23T12:05:14.642Z,19.98
2023-01-23T12:07:20.949Z,21.38
2023-01-23T12:09:27.184Z,21.88
2023-01-23T12:11:38.979Z,16.48
2023-01-23T12:13:59.462Z,24.83
2023-01-23T12:16:12.153Z,21.88
2023-01-23T12:18:30.213Z,20.33
2023-01-23T12:20:42.978Z,20.13
2023-01-23T12:22:56.821Z,18.00
2023-01-23T12:25:12.448Z,19.70
2023-01-23T12:27:25.148Z,19.92
2023-01-23T12:29:44.385Z,23.35
2023-01-23T12:32:01.682Z,26.25
2023-01-23T12:34:22.704Z,17.67
2023-01-23T12:36:59.493Z,19.83
2023-01-23T12:39:20.410Z,22.10
2023-01-23T12:41:36.257Z,19.92
2023-01-23T12:43:47.961Z,18.92
2023-01-23T12:45:59.448Z,19.90
2023-01-23T12:48:08.203Z,17.20
2023-01-23T12:50:20.948Z,19.77
2023-01-23T12:52:30.042Z,17.73
2023-01-23T12:54:38.324Z,16.70
2023-01-23T12:56:41.963Z,21.33
2023-01-23T12:58:51.201Z,23.80
2023-01-23T13:01:15.465Z,16.38
2023-01-23T13:03:45.454Z,20.10
2023-01-23T13:06:03.785Z,17.75
2023-01-23T13:08:12.583Z,19.02
2023-01-23T13:10:48.059Z,20.25
2023-01-23T13:12:54.890Z,18.05
2023-01-23T13:15:38.770Z,16.95
2023-01-23T13:17:48.162Z,17.25
2023-01-23T13:20:08.213Z,20.13
2023-01-23T13:22:29.345Z,18.40
2023-01-23T13:25:05.627Z,20.30
2023-01-23T13:27:36.162Z,18.70
2023-01-23T13:29:52.226Z,20.83
2023-01-23T13:32:24.133Z,19.77
2023-01-23T13:34:41.601Z,18.30
2023-01-23T13:36:45.415Z,19.95
2023-01-23T13:39:01.684Z,16.65
2023-01-23T13:41:29.714Z,17.15
2023-01-23T13:43:52.352Z,18.67
2023-01-23T13:45:55.357Z,21.42
2023-01-23T14:20:19.105Z,19.20
2023-01-23T14:22:21.956Z,21.35
2023-01-23T14:24:29.074Z,17.40
2023-01-23T14:26:33.688Z,16.48
2023-01-23T14:28:36.284Z,17.73
2023-01-23T14:30:40.204Z,16.90
2023-01-23T14:32:43.109Z,21.25
2023-01-23T14:34:45.854Z,18.90
2023-01-23T14:36:51.464Z,18.58
2023-01-23T14:38:56.620Z,20.65
2023-01-23T14:40:59.549Z,20.63
2023-01-23T14:43:07.822Z,18.95
2023-01-23T14:45:13.779Z,19.92
2023-01-23T14:47:20.526Z,17.85
2023-01-23T14:49:27.325Z,19.13
2023-01-23T14:51:30.185Z,18.08
2023-01-23T14:53:33.098Z,18.30
2023-01-23T14:55:40.189Z,17.30
2023-01-23T14:57:43.595Z,16.75
2023-01-23T14:59:47.820Z,17.42
2023-01-23T15:01:57.851Z,17.60
2023-01-23T15:04:04.304Z,16.55
2023-01-23T15:06:14.790Z,16.40
2023-01-23T15:08:22.165Z,21.10
2023-01-23T15:10:27.497Z,16.83
2023-01-23T15:12:30.205Z,19.67
2023-01-23T15:14:38.306Z,18.02
2023-01-23T15:16:41.911Z,18.02
2023-01-23T15:18:54.290Z,18.77
2023-01-23T15:20:59.919Z,20.17
2023-01-23T15:23:23.620Z,19.15
2023-01-23T15:25:30.948Z,20.05
2023-01-23T15:27:35.443Z,17.20
2023-01-23T15:29:38.083Z,17.00
2023-01-23T15:31:45.726Z,16.10
2023-01-23T15:33:48.671Z,17.70
2023-01-23T15:35:51.533Z,19.42
2023-01-23T15:37:58.981Z,17.85
2023-01-23T15:40:04.216Z,17.40
2023-01-23T15:42:28.598Z,21.75
2023-01-23T15:44:33.922Z,19.02
2023-01-23T15:46:36.637Z,20.83
2023-01-23T15:48:39.298Z,21.20
2023-01-23T15:50:42.166Z,20.83
2023-01-23T15:52:50.383Z,17.73
2023-01-23T15:54:56.669Z,20.02
2023-01-23T15:57:07.513Z,19.60
2023-01-23T15:59:15.098Z,21.48
2023-01-23T16:01:17.828Z,21.60
2023-01-23T16:03:20.584Z,24.00
2023-01-23T16:05:24.329Z,16.77
2023-01-23T16:07:31.714Z,18.27
2023-01-23T16:09:37.994Z,24.17
2023-01-23T16:11:42.012Z,21.13
2023-01-23T16:13:45.464Z,19.40
2023-01-23T16:15:48.497Z,22.98
2023-01-23T16:17:51.812Z,22.75
2023-01-23T16:19:54.546Z,23.38
2023-01-23T16:22:04.676Z,20.52
2023-01-23T16:24:09.824Z,24.58
2023-01-23T16:26:19.457Z,23.95
2023-01-23T16:28:26.438Z,22.17
2023-01-23T16:32:32.105Z,23.27
2023-01-23T16:34:34.847Z,20.25
2023-01-23T16:36:37.790Z,24.52
2023-01-23T16:38:40.614Z,23.55
2023-01-23T16:40:43.348Z,19.33
2023-01-23T16:42:48.256Z,18.83
2023-01-23T16:44:52.286Z,21.83
2023-01-23T16:46:55.216Z,19.70
2023-01-23T16:48:58.004Z,25.52
2023-01-23T16:51:08.162Z,19.80
2023-01-23T16:53:19.143Z,21.10
2023-01-23T16:55:24.022Z,22.48
2023-01-23T16:57:26.763Z,24.15
2023-01-23T16:59:36.214Z,25.40
2023-01-23T17:01:43.618Z,23.92
2023-01-23T17:03:46.531Z,20.65
2023-01-23T17:05:49.430Z,21.13
2023-01-23T17:07:52.235Z,21.50
2023-01-23T17:09:54.910Z,20.05
2023-01-23T17:11:57.939Z,23.33
2023-01-23T17:14:03.495Z,23.55
2023-01-23T17:16:21.877Z,23.48
2023-01-23T17:18:33.289Z,21.48
2023-01-23T17:22:41.965Z,21.67
2023-01-23T17:24:44.564Z,20.50
2023-01-23T17:26:47.507Z,21.00
2023-01-23T17:28:50.296Z,23.08
2023-01-23T17:30:55.172Z,25.40
2023-01-23T17:32:59.115Z,25.35
2023-01-23T17:35:07.115Z,21.33
2023-01-23T17:37:18.989Z,23.40
2023-01-23T17:39:22.149Z,21.05
2023-01-23T17:41:25.005Z,23.27
2023-01-23T17:43:29.061Z,23.00
2023-01-23T17:45:31.747Z,22.58
2023-01-23T17:47:35.460Z,22.60
2023-01-23T17:49:38.214Z,22.20
2023-01-23T17:51:42.263Z,21.58
2023-01-23T17:53:45.006Z,22.05
2023-01-23T17:55:51.302Z,23.33
2023-01-23T17:57:53.942Z,21.95
2023-01-23T17:59:56.733Z,22.90
2023-01-23T18:01:59.699Z,25.42
2023-01-23T18:04:02.422Z,23.48
2023-01-23T18:06:05.247Z,22.88
2023-01-23T18:08:14.706Z,22.00
2023-01-23T18:10:18.317Z,23.10
2023-01-23T18:12:31.370Z,22.00
2023-01-23T18:16:48.147Z,25.08
2023-01-23T18:18:57.942Z,23.92
2023-01-23T18:21:01.936Z,25.67
2023-01-23T18:23:07.071Z,21.75
2023-01-23T18:25:15.716Z,22.85
2023-01-23T18:27:23.912Z,24.70
2023-01-23T18:29:44.160Z,23.35
2023-01-23T18:32:01.316Z,25.65
2023-01-23T18:34:12.795Z,23.02
2023-01-23T18:36:25.611Z,23.20
2023-01-23T18:38:34.629Z,24.80
2023-01-23T18:40:47.286Z,23.55
2023-01-23T18:42:59.299Z,23.85
2023-01-23T18:45:05.809Z,29.55
2023-01-23T18:47:12.473Z,24.05
2023-01-23T18:49:27.734Z,23.90
2023-01-23T18:51:40.636Z,22.40
2023-01-23T18:53:52.914Z,22.48
2023-01-23T18:56:08.719Z,23.15
2023-01-23T18:58:23.476Z,24.92
2023-01-23T19:00:31.953Z,24.52
2023-01-23T19:02:39.258Z,22.67
2023-01-23T19:04:48.393Z,22.80
2023-01-23T19:06:51.545Z,22.95
2023-01-23T19:08:56.505Z,26.55
2023-01-23T19:11:05.576Z,21.67
2023-01-23T19:13:17.588Z,22.17
2023-01-23T19:15:28.938Z,24.65
2023-01-23T19:17:40.519Z,21.73
2023-01-23T19:19:49.928Z,23.77
2023-01-23T19:21:53.021Z,21.85
2023-01-23T19:23:58.746Z,23.95
2023-01-23T19:26:03.416Z,24.55
2023-01-23T19:28:07.226Z,23.23
2023-01-23T19:30:12.877Z,22.75
2023-01-23T19:32:16.100Z,21.23
2023-01-23T19:34:18.982Z,23.73
2023-01-23T19:36:22.708Z,20.75
2023-01-23T19:38:25.305Z,24.23
2023-01-23T19:40:27.948Z,23.88
2023-01-23T19:42:38.748Z,20.10
2023-01-23T19:44:51.674Z,20.08
2023-01-23T19:46:54.490Z,21.55
2023-01-23T19:48:57.764Z,27.08
2023-01-23T19:51:00.481Z,24.05
2023-01-23T19:53:03.148Z,21.00
2023-01-23T19:55:06.180Z,22.92
2023-01-23T19:57:08.744Z,22.55
2023-01-23T19:59:12.838Z,25.52
2023-01-23T20:01:22.738Z,20.65
2023-01-23T20:03:25.418Z,24.48
2023-01-23T20:05:28.412Z,25.15
2023-01-23T20:07:31.039Z,24.40
2023-01-23T20:09:33.662Z,21.75
2023-01-23T20:11:36.462Z,25.42
2023-01-23T20:13:40.801Z,25.17
2023-01-23T20:15:44.790Z,23.95
2023-01-23T20:17:47.439Z,22.30
2023-01-23T20:19:50.049Z,23.38
2023-01-23T20:21:52.726Z,19.70
2023-01-23T20:23:55.450Z,21.55
2023-01-23T20:25:59.260Z,23.55
2023-01-23T20:28:01.846Z,23.58
2023-01-23T20:30:05.415Z,23.70
2023-01-23T20:32:09.540Z,23.60
2023-01-23T20:34:12.360Z,25.58
2023-01-23T20:36:15.901Z,22.35
2023-01-23T20:38:18.882Z,22.52
2023-01-23T20:40:21.519Z,24.30
2023-01-23T20:42:24.153Z,22.73
2023-01-23T20:44:27.045Z,22.38
2023-01-23T20:46:29.876Z,23.73
2023-01-23T20:48:35.383Z,25.13
2023-01-23T20:50:38.165Z,21.02
2023-01-23T20:52:58.191Z,22.77
2023-01-23T20:55:00.867Z,22.83
2023-01-23T20:57:03.491Z,23.23
2023-01-23T20:59:21.555Z,20.63
2023-01-23T21:01:26.721Z,21.50
2023-01-23T21:03:29.483Z,22.73
2023-01-23T21:05:33.608Z,23.77
2023-01-23T21:07:36.419Z,25.15
2023-01-23T21:09:39.157Z,23.55
2023-01-23T21:11:41.803Z,23.92
2023-01-23T21:13:45.367Z,19.50
2023-01-23T21:15:57.923Z,22.38
2023-01-23T21:18:00.712Z,25.08
2023-01-23T21:20:03.329Z,20.38
2023-01-23T21:22:08.134Z,20.27
2023-01-23T21:24:10.918Z,22.38
2023-01-23T21:26:13.861Z,21.88
2023-01-23T21:28:16.495Z,23.52
2023-01-23T21:30:19.769Z,24.02
2023-01-23T21:32:22.385Z,20.17
2023-01-23T21:34:26.451Z,24.77
2023-01-23T21:36:30.171Z,21.02
2023-01-23T21:38:34.204Z,21.67
2023-01-23T21:40:36.869Z,23.55
2023-01-23T21:42:39.542Z,23.08
2023-01-23T21:44:42.209Z,21.08
2023-01-23T21:46:46.549Z,25.40
2023-01-23T21:48:49.496Z,20.65
2023-01-23T21:50:52.205Z,25.02
2023-01-23T21:52:54.829Z,24.15
2023-01-23T21:54:58.800Z,20.27
2023-01-23T21:57:01.419Z,21.02
2023-01-23T21:59:04.075Z,22.00
2023-01-23T22:01:26.474Z,19.35
2023-01-23T22:03:29.157Z,19.70
2023-01-23T22:05:35.195Z,21.63
2023-01-23T22:07:37.856Z,23.58
2023-01-23T22:09:40.527Z,24.08
2023-01-23T22:11:44.861Z,17.90
2023-01-23T22:13:48.032Z,22.13
2023-01-23T22:15:50.755Z,19.50
2023-01-23T22:17:53.474Z,20.75
2023-01-23T22:19:56.095Z,22.25
2023-01-23T22:21:58.740Z,22.52
2023-01-23T22:24:01.535Z,23.42
2023-01-23T22:26:07.871Z,21.92
2023-01-23T22:28:12.113Z,27.05
2023-01-23T22:30:15.191Z,23.23
2023-01-23T22:32:18.424Z,24.85
2023-01-23T22:34:21.203Z,22.20
2023-01-23T22:36:23.841Z,21.55
2023-01-23T22:38:26.530Z,24.38
2023-01-23T22:40:29.211Z,23.92
2023-01-23T22:42:31.858Z,22.67
2023-01-23T22:44:35.822Z,20.27
2023-01-23T22:46:38.588Z,19.52
2023-01-23T22:48:41.721Z,21.00
2023-01-23T22:50:44.348Z,24.13
2023-01-23T22:52:47.100Z,21.08
2023-01-23T22:54:49.747Z,22.05
2023-01-23T22:56:52.352Z,21.30
2023-01-23T22:58:56.303Z,22.55
2023-01-23T23:01:00.398Z,20.73
2023-01-23T23:03:03.138Z,23.50
2023-01-23T23:05:06.991Z,20.67
2023-01-23T23:07:09.610Z,23.70
2023-01-23T23:09:12.333Z,19.83
2023-01-23T23:11:17.239Z,22.80
2023-01-23T23:13:19.996Z,21.17
2023-01-23T23:15:23.027Z,20.85
2023-01-23T23:17:29.608Z,22.70
2023-01-23T23:19:32.612Z,21.05
2023-01-23T23:21:36.934Z,21.10
2023-01-23T23:23:40.162Z,20.45
2023-01-23T23:25:42.775Z,22.10
2023-01-23T23:27:45.415Z,24.15
2023-01-23T23:29:48.104Z,20.55
2023-01-23T23:31:52.076Z,20.05
2023-01-23T23:33:56.402Z,20.35
2023-01-23T23:35:59.206Z,21.65
2023-01-23T23:38:01.928Z,24.13
2023-01-23T23:40:05.009Z,21.88
2023-01-23T23:42:07.945Z,22.55
2023-01-23T23:44:10.647Z,23.25
2023-01-23T23:46:14.452Z,24.90
2023-01-23T23:48:17.089Z,22.48
2023-01-23T23:50:21.372Z,22.38
2023-01-23T23:52:24.015Z,21.20
2023-01-23T23:54:26.695Z,24.27
2023-01-23T23:56:32.040Z,26.02
2023-01-23T23:58:36.799Z,26.20
